createdAt,value
2018-09-15T00:00:33.460Z,94.40
2018-09-15T00:03:01.412Z,93.90
2018-09-15T00:05:29.309Z,93.00
2018-09-15T00:07:57.225Z,94.20
2018-09-15T00:10:25.178Z,94.90
2018-09-15T00:12:53.211Z,94.80
2018-09-15T00:15:21.303Z,95.00
2018-09-15T00:17:49.871Z,95.10
2018-09-15T00:20:17.766Z,95.10
2018-09-15T00:22:45.690Z,95.10
2018-09-15T00:25:13.639Z,94.90
2018-09-15T00:27:41.582Z,95.20
2018-09-15T00:30:09.494Z,95.30
2018-09-15T00:32:37.508Z,94.40
2018-09-15T00:35:05.482Z,95.00
2018-09-15T00:37:33.416Z,94.90
2018-09-15T00:40:01.354Z,95.30
2018-09-15T00:42:29.317Z,94.90
2018-09-15T00:44:57.201Z,94.60
2018-09-15T00:47:25.137Z,94.20
2018-09-15T00:49:53.136Z,95.10
2018-09-15T00:52:21.089Z,94.90
2018-09-15T00:54:49.100Z,95.10
2018-09-15T00:57:17.061Z,94.50
2018-09-15T00:59:44.989Z,93.30
2018-09-15T01:02:12.947Z,94.40
2018-09-15T01:04:40.873Z,94.60
2018-09-15T01:07:08.765Z,94.90
2018-09-15T01:09:36.693Z,94.90
2018-09-15T01:12:04.624Z,94.90
2018-09-15T01:14:32.619Z,95.10
2018-09-15T01:17:00.596Z,95.00
2018-09-15T01:19:28.509Z,94.90
2018-09-15T01:21:56.453Z,94.70
2018-09-15T01:24:24.412Z,95.10
2018-09-15T01:26:52.365Z,95.40
2018-09-15T01:29:20.235Z,94.80
2018-09-15T01:31:48.202Z,94.70
2018-09-15T01:34:16.201Z,95.20
2018-09-15T01:36:44.103Z,93.70
2018-09-15T01:39:12.080Z,94.50
2018-09-15T01:41:40.028Z,95.20
2018-09-15T01:44:07.946Z,95.70
2018-09-15T01:46:35.905Z,95.70
2018-09-15T01:49:03.903Z,95.90
2018-09-15T01:51:31.832Z,95.80
2018-09-15T01:53:59.766Z,95.80
2018-09-15T01:56:27.682Z,96.00
2018-09-15T01:58:55.542Z,95.20
2018-09-15T02:01:23.490Z,95.80
2018-09-15T02:03:51.409Z,96.20
2018-09-15T02:06:19.363Z,96.20
2018-09-15T02:08:47.259Z,96.50
2018-09-15T02:11:15.227Z,96.50
2018-09-15T02:13:43.125Z,96.10
2018-09-15T02:16:11.147Z,94.50
2018-09-15T02:18:39.129Z,95.70
2018-09-15T02:21:07.078Z,95.40
2018-09-15T02:23:35.025Z,94.90
2018-09-15T02:26:02.901Z,94.70
2018-09-15T02:28:30.852Z,93.60
2018-09-15T02:30:58.776Z,93.30
2018-09-15T02:33:26.688Z,93.50
2018-09-15T02:35:54.682Z,94.30
2018-09-15T02:38:22.586Z,95.30
2018-09-15T02:40:50.497Z,95.70
2018-09-15T02:43:18.366Z,96.10
2018-09-15T02:45:46.346Z,96.10
2018-09-15T02:48:14.220Z,96.10
2018-09-15T02:50:42.554Z,96.40
2018-09-15T02:53:10.480Z,96.50
2018-09-15T02:55:38.410Z,96.60
2018-09-15T02:58:06.470Z,96.40
2018-09-15T03:00:34.397Z,96.40
2018-09-15T03:03:02.346Z,96.10
2018-09-15T03:05:30.280Z,96.60
2018-09-15T03:07:58.238Z,96.10
2018-09-15T03:10:26.147Z,95.50
2018-09-15T03:12:54.051Z,95.20
2018-09-15T03:15:22.028Z,94.70
2018-09-15T03:17:49.933Z,94.90
2018-09-15T03:20:17.845Z,95.70
2018-09-15T03:22:45.842Z,95.60
2018-09-15T03:25:13.836Z,94.90
2018-09-15T03:27:41.742Z,94.70
2018-09-15T03:30:09.662Z,95.70
2018-09-15T03:32:37.565Z,95.90
2018-09-15T03:35:05.705Z,96.30
2018-09-15T03:37:33.633Z,96.60
2018-09-15T03:40:01.632Z,96.30
2018-09-15T03:42:29.566Z,94.90
2018-09-15T03:44:57.534Z,94.20
2018-09-15T03:47:25.424Z,93.60
2018-09-15T03:49:53.350Z,93.60
2018-09-15T03:52:21.332Z,93.30
2018-09-15T03:54:49.260Z,94.30
2018-09-15T03:57:17.205Z,95.10
2018-09-15T03:59:45.158Z,95.70
2018-09-15T04:02:13.087Z,95.80
2018-09-15T04:04:41.063Z,95.40
2018-09-15T04:07:08.958Z,96.00
2018-09-15T04:09:36.908Z,95.60
2018-09-15T04:12:04.848Z,96.10
2018-09-15T04:14:32.745Z,96.50
2018-09-15T04:17:00.681Z,96.80
2018-09-15T04:19:28.601Z,97.00
2018-09-15T04:21:56.508Z,97.00
2018-09-15T04:24:24.443Z,97.00
2018-09-15T04:26:52.551Z,95.80
2018-09-15T04:29:20.445Z,96.40
2018-09-15T04:31:48.372Z,96.90
2018-09-15T04:34:16.314Z,97.00
2018-09-15T04:36:44.254Z,97.00
2018-09-15T04:39:12.720Z,96.30
2018-09-15T04:41:41.214Z,95.50
2018-09-15T04:44:09.097Z,96.60
2018-09-15T04:46:36.977Z,96.50
2018-09-15T04:49:05.312Z,96.50
2018-09-15T04:51:33.254Z,97.10
2018-09-15T04:54:01.144Z,96.80
2018-09-15T04:56:29.130Z,95.70
2018-09-15T04:58:57.407Z,95.00
2018-09-15T05:01:25.426Z,96.10
2018-09-15T05:03:53.428Z,95.20
2018-09-15T05:06:21.537Z,94.70
2018-09-15T05:08:49.477Z,94.50
2018-09-15T05:11:17.399Z,94.10
2018-09-15T05:13:45.319Z,95.10
2018-09-15T05:16:13.212Z,96.10
2018-09-15T05:18:41.100Z,96.80
2018-09-15T05:21:09.003Z,97.10
2018-09-15T05:23:36.858Z,97.10
2018-09-15T05:26:04.812Z,97.30
2018-09-15T05:28:32.765Z,97.00
2018-09-15T05:31:00.661Z,97.50
2018-09-15T05:33:28.649Z,97.60
2018-09-15T05:35:56.594Z,97.80
2018-09-15T05:38:24.544Z,97.90
2018-09-15T05:40:52.477Z,97.90
2018-09-15T05:43:20.398Z,98.10
2018-09-15T05:45:48.313Z,97.90
2018-09-15T05:48:16.184Z,98.00
2018-09-15T05:50:44.138Z,98.00
2018-09-15T05:53:12.016Z,97.80
2018-09-15T05:55:39.912Z,97.80
2018-09-15T05:58:07.810Z,97.90
2018-09-15T06:00:35.787Z,97.70
2018-09-15T06:03:05.299Z,98.10
2018-09-15T06:05:33.253Z,98.20
2018-09-15T06:08:01.197Z,97.20
2018-09-15T06:10:29.077Z,97.20
2018-09-15T06:12:56.965Z,97.60
2018-09-15T06:15:24.981Z,97.90
2018-09-15T06:17:53.625Z,97.00
2018-09-15T06:20:21.570Z,96.90
2018-09-15T06:22:49.501Z,97.60
2018-09-15T06:25:17.819Z,97.90
2018-09-15T06:27:45.735Z,98.10
2018-09-15T06:30:13.643Z,97.40
2018-09-15T06:32:41.568Z,96.50
2018-09-15T06:35:10.088Z,97.00
2018-09-15T06:37:38.025Z,97.10
2018-09-15T06:40:06.102Z,96.10
2018-09-15T06:42:34.053Z,96.30
2018-09-15T06:45:03.834Z,96.90
2018-09-15T06:47:32.186Z,96.60
2018-09-15T06:50:00.184Z,97.30
2018-09-15T06:52:28.108Z,97.30
2018-09-15T06:54:56.034Z,98.00
2018-09-15T06:57:23.954Z,97.40
2018-09-15T06:59:52.108Z,96.90
2018-09-15T07:02:20.948Z,97.60
2018-09-15T07:04:48.867Z,97.20
2018-09-15T07:07:16.856Z,97.50
2018-09-15T07:09:44.808Z,97.70
2018-09-15T07:12:12.741Z,97.30
2018-09-15T07:14:40.629Z,96.90
2018-09-15T07:17:08.540Z,96.50
2018-09-15T07:19:36.482Z,96.80
2018-09-15T07:22:04.437Z,96.50
2018-09-15T07:24:38.984Z,97.10
2018-09-15T07:27:06.982Z,96.10
2018-09-15T07:29:34.868Z,96.30
2018-09-15T07:32:02.878Z,96.00
2018-09-15T07:34:31.060Z,95.00
2018-09-15T07:36:59.053Z,93.90
2018-09-15T07:39:27.134Z,94.80
2018-09-15T07:41:55.054Z,94.10
2018-09-15T07:44:23.024Z,93.70
2018-09-15T07:46:51.789Z,93.80
2018-09-15T07:49:19.789Z,94.20
2018-09-15T07:51:47.859Z,94.00
2018-09-15T07:54:15.889Z,94.10
2018-09-15T07:56:44.576Z,93.30
2018-09-15T07:59:12.653Z,93.30
2018-09-15T08:01:41.001Z,93.40
2018-09-15T08:04:09.938Z,94.40
2018-09-15T08:06:37.980Z,93.80
2018-09-15T08:09:06.733Z,93.90
2018-09-15T08:11:38.832Z,93.80
2018-09-15T08:14:07.881Z,92.80
2018-09-15T08:16:36.665Z,92.60
2018-09-15T08:19:05.013Z,93.10
2018-09-15T08:21:33.143Z,93.10
2018-09-15T08:24:01.186Z,92.80
2018-09-15T08:26:29.186Z,93.20
2018-09-15T08:28:58.068Z,93.40
2018-09-15T08:31:26.181Z,93.30
2018-09-15T08:33:54.359Z,93.80
2018-09-15T08:36:22.373Z,93.20
2018-09-15T08:38:50.429Z,93.00
2018-09-15T08:41:18.466Z,92.30
2018-09-15T08:43:46.777Z,92.30
2018-09-15T08:46:14.744Z,92.00
2018-09-15T08:48:42.673Z,92.10
2018-09-15T08:51:10.589Z,91.60
2018-09-15T08:53:38.492Z,91.90
2018-09-15T08:56:06.488Z,91.70
2018-09-15T08:58:34.454Z,93.10
2018-09-15T09:01:02.364Z,93.00
2018-09-15T09:03:30.606Z,91.90
2018-09-15T09:05:58.651Z,92.50
2018-09-15T09:08:26.650Z,91.90
2018-09-15T09:10:54.598Z,92.00
2018-09-15T09:13:22.549Z,91.50
2018-09-15T09:15:50.765Z,91.70
2018-09-15T09:18:19.756Z,91.60
2018-09-15T09:20:47.841Z,91.70
2018-09-15T09:23:15.877Z,92.10
2018-09-15T09:25:43.881Z,91.70
2018-09-15T09:28:11.740Z,91.60
2018-09-15T09:30:39.939Z,90.90
2018-09-15T09:33:08.165Z,90.60
2018-09-15T09:35:36.379Z,90.20
2018-09-15T09:38:04.412Z,90.50
2018-09-15T09:40:32.369Z,89.90
2018-09-15T09:43:00.569Z,89.10
2018-09-15T09:45:28.544Z,90.10
2018-09-15T09:47:56.561Z,90.10
2018-09-15T09:50:24.546Z,90.30
2018-09-15T09:52:52.432Z,87.90
2018-09-15T09:55:20.338Z,87.30
2018-09-15T09:57:48.260Z,86.90
2018-09-15T10:00:21.643Z,86.90
2018-09-15T10:02:49.553Z,88.90
2018-09-15T10:05:17.505Z,85.30
2018-09-15T10:07:45.368Z,86.50
2018-09-15T10:10:13.331Z,87.40
2018-09-15T10:12:41.510Z,86.20
2018-09-15T10:15:09.515Z,86.10
2018-09-15T10:17:37.401Z,85.70
2018-09-15T10:20:05.360Z,86.10
2018-09-15T10:22:34.543Z,82.90
2018-09-15T10:25:02.481Z,80.90
2018-09-15T10:27:30.435Z,82.60
2018-09-15T10:29:58.374Z,79.50
2018-09-15T10:32:26.313Z,81.00
2018-09-15T10:34:54.665Z,81.30
2018-09-15T10:37:22.741Z,80.00
2018-09-15T10:39:50.821Z,79.40
2018-09-15T10:42:18.813Z,78.80
2018-09-15T10:44:46.798Z,77.10
2018-09-15T10:47:14.747Z,77.20
2018-09-15T10:49:42.901Z,78.50
2018-09-15T10:52:11.060Z,77.90
2018-09-15T10:54:39.839Z,77.80
2018-09-15T10:57:08.741Z,79.50
2018-09-15T10:59:37.626Z,76.70
2018-09-15T11:09:11.035Z,75.50
2018-09-15T11:11:39.122Z,75.70
2018-09-15T11:14:07.145Z,75.20
2018-09-15T11:16:37.452Z,75.00
2018-09-15T11:19:06.361Z,75.00
2018-09-15T11:21:34.481Z,76.50
2018-09-15T11:24:03.360Z,76.00
2018-09-15T11:26:31.533Z,75.10
2018-09-15T11:29:01.639Z,73.60
2018-09-15T11:31:30.310Z,71.90
2018-09-15T11:33:58.411Z,70.90
2018-09-15T11:36:26.405Z,71.50
2018-09-15T11:38:54.433Z,70.90
2018-09-15T11:41:22.477Z,70.50
2018-09-15T11:43:51.204Z,69.10
2018-09-15T11:46:19.187Z,70.00
2018-09-15T11:48:47.150Z,71.00
2018-09-15T11:51:15.886Z,71.00
2018-09-15T11:53:44.509Z,70.90
2018-09-15T11:56:12.525Z,70.10
2018-09-15T11:58:40.977Z,69.10
2018-09-15T12:01:09.090Z,70.70
2018-09-15T12:03:37.191Z,67.20
2018-09-15T12:06:05.110Z,67.00
2018-09-15T12:08:33.048Z,65.30
2018-09-15T12:11:00.990Z,64.20
2018-09-15T12:13:28.908Z,65.30
2018-09-15T12:15:56.821Z,64.60
2018-09-15T12:20:59.542Z,62.30
2018-09-15T12:23:27.440Z,62.50
2018-09-15T12:25:55.361Z,61.30
2018-09-15T12:28:23.364Z,61.50
2018-09-15T12:30:51.317Z,62.40
2018-09-15T12:33:19.317Z,61.40
2018-09-15T12:35:47.197Z,59.00
2018-09-15T12:38:15.089Z,60.20
2018-09-15T12:40:42.977Z,60.40
2018-09-15T12:43:11.058Z,59.50
2018-09-15T12:45:39.065Z,58.90
2018-09-15T12:48:07.010Z,59.20
2018-09-15T12:50:34.914Z,57.50
2018-09-15T12:53:02.820Z,58.60
2018-09-15T12:55:30.687Z,58.60
2018-09-15T12:57:58.637Z,58.50
2018-09-15T13:00:26.562Z,58.00
2018-09-15T13:02:54.469Z,57.00
2018-09-15T13:05:22.446Z,57.00
2018-09-15T13:07:50.365Z,57.30
2018-09-15T13:10:18.282Z,56.30
2018-09-15T13:12:46.739Z,57.90
2018-09-15T13:15:14.654Z,57.00
2018-09-15T13:17:42.526Z,56.00
2018-09-15T13:20:10.514Z,56.80
2018-09-15T13:22:38.535Z,57.50
2018-09-15T13:25:06.564Z,56.00
2018-09-15T13:27:34.623Z,56.00
2018-09-15T13:30:02.663Z,56.80
2018-09-15T13:32:30.626Z,55.80
2018-09-15T13:34:58.757Z,56.60
2018-09-15T13:37:26.758Z,55.40
2018-09-15T13:39:54.759Z,55.10
2018-09-15T13:42:22.746Z,53.20
2018-09-15T13:44:50.698Z,53.90
2018-09-15T13:47:18.712Z,53.30
2018-09-15T13:49:46.606Z,52.60
2018-09-15T13:52:14.574Z,51.70
2018-09-15T13:54:42.505Z,51.70
2018-09-15T13:57:10.466Z,52.00
2018-09-15T13:59:38.546Z,53.80
2018-09-15T14:02:06.534Z,51.80
2018-09-15T14:04:34.498Z,51.50
2018-09-15T14:07:02.449Z,51.30
2018-09-15T14:09:30.374Z,50.50
2018-09-15T14:11:58.314Z,50.60
2018-09-15T14:14:26.333Z,50.60
2018-09-15T14:16:54.368Z,50.80
2018-09-15T14:19:22.230Z,50.60
2018-09-15T14:21:50.214Z,50.10
2018-09-15T14:24:18.112Z,51.00
2018-09-15T14:26:46.071Z,51.30
2018-09-15T14:29:14.027Z,51.30
2018-09-15T14:31:41.957Z,50.30
2018-09-15T14:34:09.861Z,50.70
2018-09-15T14:36:37.848Z,50.30
2018-09-15T14:39:07.967Z,49.00
2018-09-15T14:41:35.926Z,48.20
2018-09-15T14:44:03.889Z,48.50
2018-09-15T14:46:31.872Z,47.70
2018-09-15T14:48:59.783Z,48.10
2018-09-15T14:51:27.688Z,47.90
2018-09-15T14:53:55.626Z,48.10
2018-09-15T14:56:23.687Z,47.60
2018-09-15T14:58:51.566Z,48.40
2018-09-15T15:01:19.516Z,48.80
2018-09-15T15:03:47.490Z,47.80
2018-09-15T15:06:15.413Z,47.90
2018-09-15T15:08:43.374Z,47.10
2018-09-15T15:11:11.386Z,46.70
2018-09-15T15:13:39.384Z,46.90
2018-09-15T15:16:07.601Z,46.20
2018-09-15T15:18:35.608Z,47.10
2018-09-15T15:21:04.345Z,47.70
2018-09-15T15:23:32.290Z,57.80
2018-09-15T15:26:00.256Z,56.10
2018-09-15T15:28:28.179Z,57.00
2018-09-15T15:30:56.146Z,56.10
2018-09-15T15:33:24.163Z,57.20
2018-09-15T15:35:52.042Z,57.70
2018-09-15T15:38:20.062Z,56.30
2018-09-15T15:40:47.994Z,56.20
2018-09-15T15:43:15.983Z,56.10
2018-09-15T15:45:43.922Z,56.30
2018-09-15T15:48:11.874Z,56.70
2018-09-15T15:50:39.791Z,57.50
2018-09-15T15:53:07.941Z,60.00
2018-09-15T15:55:36.014Z,58.20
2018-09-15T15:58:04.105Z,58.40
2018-09-15T16:00:32.158Z,57.70
2018-09-15T16:03:00.126Z,56.00
2018-09-15T16:05:28.070Z,55.80
2018-09-15T16:07:56.045Z,53.20
2018-09-15T16:10:23.927Z,54.60
2018-09-15T16:12:51.852Z,58.30
2018-09-15T16:15:20.394Z,58.20
2018-09-15T16:17:48.331Z,58.10
2018-09-15T16:20:16.291Z,56.80
2018-09-15T16:22:44.242Z,57.10
2018-09-15T16:25:12.194Z,57.80
2018-09-15T16:27:40.137Z,58.50
2018-09-15T16:30:08.096Z,57.90
2018-09-15T16:32:36.053Z,59.20
2018-09-15T16:35:04.044Z,58.50
2018-09-15T16:37:31.977Z,57.20
2018-09-15T16:39:59.962Z,57.80
2018-09-15T16:42:27.889Z,57.50
2018-09-15T16:44:55.869Z,58.10
2018-09-15T16:47:23.861Z,57.90
2018-09-15T16:49:51.845Z,59.40
2018-09-15T16:52:19.861Z,59.10
2018-09-15T16:54:47.774Z,60.00
2018-09-15T16:57:15.775Z,60.00
2018-09-15T16:59:44.221Z,59.40
2018-09-15T17:02:12.230Z,59.40
2018-09-15T17:04:40.221Z,59.60
2018-09-15T17:07:08.161Z,59.60
2018-09-15T17:09:36.186Z,60.10
2018-09-15T17:12:04.309Z,60.50
2018-09-15T17:14:32.433Z,60.20
2018-09-15T17:17:00.527Z,60.90
2018-09-15T17:19:28.483Z,63.30
2018-09-15T17:21:56.449Z,64.00
2018-09-15T17:24:24.490Z,64.40
2018-09-15T17:26:52.478Z,63.80
2018-09-15T17:29:20.462Z,64.30
2018-09-15T17:31:48.617Z,65.70
2018-09-15T17:34:16.674Z,66.90
2018-09-15T17:36:44.683Z,65.30
2018-09-15T17:39:12.744Z,65.00
2018-09-15T17:41:40.778Z,65.20
2018-09-15T17:44:08.737Z,66.90
2018-09-15T17:46:36.788Z,66.60
2018-09-15T17:49:04.875Z,67.50
2018-09-15T17:51:32.982Z,61.70
2018-09-15T17:54:01.026Z,52.10
2018-09-15T17:56:29.053Z,52.00
2018-09-15T17:58:57.169Z,53.20
2018-09-15T18:01:25.318Z,53.50
2018-09-15T18:03:53.262Z,52.70
2018-09-15T18:06:21.405Z,52.10
2018-09-15T18:08:49.606Z,52.70
2018-09-15T18:11:17.710Z,53.30
2018-09-15T18:13:46.950Z,59.00
2018-09-15T18:16:14.991Z,57.00
2018-09-15T18:18:43.992Z,56.90
2018-09-15T18:21:12.033Z,58.30
2018-09-15T18:23:40.174Z,58.00
2018-09-15T18:26:08.225Z,59.10
2018-09-15T18:28:36.245Z,58.70
2018-09-15T18:31:04.756Z,59.90
2018-09-15T18:33:32.850Z,59.70
2018-09-15T18:36:00.864Z,61.90
2018-09-15T18:38:28.985Z,61.30
2018-09-15T18:40:56.953Z,62.50
2018-09-15T18:43:25.089Z,63.80
2018-09-15T18:45:53.065Z,63.40
2018-09-15T18:48:21.085Z,66.20
2018-09-15T18:50:49.122Z,75.90
2018-09-15T18:53:18.057Z,57.90
2018-09-15T18:55:46.124Z,58.10
2018-09-15T18:58:14.128Z,57.00
2018-09-15T19:00:42.152Z,57.00
2018-09-15T19:03:14.420Z,56.50
2018-09-15T19:05:42.876Z,56.00
2018-09-15T19:08:10.905Z,56.40
2018-09-15T19:10:39.057Z,56.40
2018-09-15T19:13:07.094Z,57.30
2018-09-15T19:15:35.125Z,58.10
2018-09-15T19:18:03.177Z,59.00
2018-09-15T19:20:31.221Z,58.50
2018-09-15T19:22:59.392Z,60.70
2018-09-15T19:25:27.525Z,59.20
2018-09-15T19:27:55.473Z,82.10
2018-09-15T19:30:23.462Z,77.40
2018-09-15T19:32:51.564Z,78.70
2018-09-15T19:35:19.621Z,79.90
2018-09-15T19:37:48.046Z,79.90
2018-09-15T19:40:16.074Z,79.50
2018-09-15T19:42:44.092Z,77.00
2018-09-15T19:45:12.057Z,77.40
2018-09-15T19:47:40.022Z,78.40
2018-09-15T19:50:08.088Z,79.40
2018-09-15T19:52:36.314Z,80.40
2018-09-15T19:55:05.011Z,80.60
2018-09-15T19:57:34.173Z,80.10
2018-09-15T20:00:04.747Z,84.60
2018-09-15T20:02:33.137Z,63.10
2018-09-15T20:05:05.258Z,62.20
2018-09-15T20:07:33.586Z,64.50
2018-09-15T20:10:01.891Z,63.70
2018-09-15T20:12:29.970Z,65.30
2018-09-15T20:22:24.118Z,94.70
2018-09-15T20:24:52.248Z,93.60
2018-09-15T20:27:21.234Z,91.90
2018-09-15T20:29:49.336Z,93.70
2018-09-15T20:32:17.383Z,85.50
2018-09-15T20:34:45.327Z,73.30
2018-09-15T20:37:13.423Z,69.10
2018-09-15T20:39:41.503Z,70.60
2018-09-15T20:42:09.577Z,69.60
2018-09-15T20:44:38.507Z,72.00
2018-09-15T20:47:07.251Z,70.10
2018-09-15T20:49:35.362Z,72.60
2018-09-15T20:52:03.424Z,72.60
2018-09-15T20:54:31.750Z,73.50
2018-09-15T20:57:00.916Z,73.90
2018-09-15T20:59:28.921Z,85.40
2018-09-15T21:01:56.944Z,75.60
2018-09-15T21:04:25.374Z,72.20
2018-09-15T21:06:53.806Z,72.00
2018-09-15T21:09:21.855Z,71.70
2018-09-15T21:11:49.887Z,71.20
2018-09-15T21:14:17.928Z,71.60
2018-09-15T21:16:45.929Z,76.00
2018-09-15T21:19:14.091Z,76.60
2018-09-15T21:21:42.442Z,77.90
2018-09-15T21:24:11.320Z,76.50
2018-09-15T21:26:39.408Z,75.60
2018-09-15T21:29:07.403Z,75.80
2018-09-15T21:31:36.393Z,75.50
2018-09-15T21:34:04.775Z,73.40
2018-09-15T21:36:32.790Z,78.70
2018-09-15T21:39:01.496Z,80.70
2018-09-15T21:41:29.506Z,80.70
2018-09-15T21:43:57.547Z,79.50
2018-09-15T21:46:25.525Z,78.10
2018-09-15T21:48:53.490Z,81.60
2018-09-15T21:51:21.501Z,81.40
2018-09-15T21:53:50.082Z,81.20
2018-09-15T21:56:18.119Z,83.60
2018-09-15T21:58:46.040Z,84.20
2018-09-15T22:01:14.029Z,83.90
2018-09-15T22:03:47.574Z,83.50
2018-09-15T22:06:15.538Z,84.20
2018-09-15T22:08:43.599Z,84.60
2018-09-15T22:11:12.341Z,83.80
2018-09-15T22:13:40.503Z,84.60
2018-09-15T22:16:08.517Z,83.20
2018-09-15T22:18:36.468Z,84.50
2018-09-15T22:21:05.533Z,85.70
2018-09-15T22:23:33.512Z,86.60
2018-09-15T22:26:01.608Z,86.00
2018-09-15T22:28:29.637Z,85.80
2018-09-15T22:30:57.598Z,87.00
2018-09-15T22:33:25.584Z,87.90
2018-09-15T22:35:53.517Z,88.70
2018-09-15T22:38:21.535Z,88.90
2018-09-15T22:40:50.520Z,87.50
2018-09-15T22:43:18.558Z,89.00
2018-09-15T22:45:46.577Z,86.30
2018-09-15T22:48:14.620Z,83.30
2018-09-15T22:50:42.708Z,85.60
2018-09-15T22:53:10.781Z,87.70
2018-09-15T22:55:38.813Z,88.40
2018-09-15T22:58:06.744Z,89.30
2018-09-15T23:00:34.783Z,88.90
2018-09-15T23:03:02.780Z,88.60
2018-09-15T23:05:31.449Z,89.60
2018-09-15T23:07:59.440Z,89.70
2018-09-15T23:10:27.472Z,90.10
2018-09-15T23:12:56.239Z,90.20
2018-09-15T23:15:24.353Z,90.20
2018-09-15T23:17:52.421Z,90.20
2018-09-15T23:20:21.038Z,90.30
2018-09-15T23:22:49.264Z,90.30
2018-09-15T23:25:17.265Z,90.50
2018-09-15T23:27:45.279Z,90.70
2018-09-15T23:30:13.241Z,90.80
2018-09-15T23:32:41.257Z,90.60
2018-09-15T23:35:09.268Z,90.70
2018-09-15T23:37:37.326Z,90.70
2018-09-15T23:40:05.310Z,90.70
2018-09-15T23:42:33.272Z,91.20
2018-09-15T23:45:01.250Z,91.40
2018-09-15T23:47:29.301Z,91.30
2018-09-15T23:49:58.158Z,91.50
2018-09-15T23:52:26.101Z,91.40
2018-09-15T23:54:54.130Z,91.10
2018-09-15T23:57:22.099Z,91.00
2018-09-15T23:59:50.039Z,91.40
